Time;durP1;ratioP1;P1;durP2;ratioP2;P2;SDS_P1;SDS_P2;PMS_P1;PMS_P2;Temp;Humidity;BMP_temperature;BMP_pressure;BME280_temperature;BME280_humidity;BME280_pressure;Samples;Min_cycle;Max_cycle;Signal;HPM_P1;HPM_P2
2021/01/18 00:05:23;;;;;;;0.20;0.17;;;8.40;99.90;;;;;;20618241;28;20228;-78
2021/01/18 00:15:26;;;;;;;2.50;0.73;;;8.70;99.90;;;;;;20612627;28;20497;-79
2021/01/18 00:25:29;;;;;;;2.10;1.63;;;8.90;99.90;;;;;;20628755;28;20539;-78
2021/01/18 00:35:32;;;;;;;1.70;0.70;;;8.50;99.90;;;;;;20627901;28;20333;-82
2021/01/18 00:45:36;;;;;;;0.20;0.10;;;8.10;99.90;;;;;;20649156;28;20230;-84
2021/01/18 00:55:39;;;;;;;0.30;0.30;;;8.00;99.90;;;;;;20704311;28;20243;-82
2021/01/18 01:05:42;;;;;;;1.80;0.90;;;8.20;99.90;;;;;;20707808;28;20297;-82
2021/01/18 01:15:46;;;;;;;0.67;0.60;;;8.40;99.90;;;;;;20638792;28;20215;-81
2021/01/18 01:25:49;;;;;;;0.50;0.43;;;9.00;99.90;;;;;;20528910;28;20203;-78
2021/01/18 01:35:52;;;;;;;0.70;0.70;;;9.10;99.90;;;;;;20604571;28;20729;-76
2021/01/18 01:45:56;;;;;;;0.70;0.60;;;9.30;99.90;;;;;;20608767;28;20656;-78
2021/01/18 01:55:59;;;;;;;0.37;0.30;;;9.10;99.90;;;;;;20702631;28;20579;-81
2021/01/18 02:06:04;;;;;;;2.30;1.00;;;8.90;99.90;;;;;;20706142;28;20242;-79
2021/01/18 02:16:13;;;;;;;0.60;0.50;;;9.30;99.90;;;;;;20705182;28;20226;-81
2021/01/18 02:26:31;;;;;;;0.47;0.47;;;8.90;99.90;;;;;;20620693;28;20289;-79
2021/01/18 02:36:45;;;;;;;0.70;0.70;;;8.60;99.90;;;;;;20621536;28;20231;-80
2021/01/18 02:46:49;;;;;;;1.40;1.20;;;8.50;99.90;;;;;;20620362;28;20196;-77
2021/01/18 02:56:54;;;;;;;7.30;1.03;;;8.40;99.90;;;;;;20521267;28;20224;-80
2021/01/18 03:07:01;;;;;;;0.23;0.23;;;9.00;99.90;;;;;;20560833;23;20242;-66
2021/01/18 03:17:06;;;;;;;0.40;0.40;;;9.00;99.90;;;;;;20544083;28;20306;-67
2021/01/18 03:27:08;;;;;;;0.73;0.73;;;8.50;99.90;;;;;;20518124;28;20661;-68
2021/01/18 03:37:12;;;;;;;0.30;0.30;;;8.50;99.90;;;;;;20530871;28;20704;-68
2021/01/18 03:47:15;;;;;;;1.90;0.87;;;8.80;99.90;;;;;;20533468;28;20275;-66
2021/01/18 03:57:21;;;;;;;0.20;0.20;;;8.90;99.90;;;;;;20534175;28;20258;-67
2021/01/18 04:07:24;;;;;;;0.50;0.30;;;8.90;99.90;;;;;;20610967;23;20243;-79
2021/01/18 04:17:27;;;;;;;1.47;0.93;;;9.20;99.90;;;;;;20546059;28;20605;-81
2021/01/18 04:27:30;;;;;;;0.20;0.13;;;9.10;99.90;;;;;;20530382;28;20185;-82
2021/01/18 04:37:34;;;;;;;0.80;0.80;;;8.90;99.90;;;;;;20533922;28;20487;-81
2021/01/18 04:47:42;;;;;;;1.07;0.60;;;8.60;99.90;;;;;;20538614;28;20200;-78
2021/01/18 04:58:02;;;;;;;0.50;0.50;;;8.30;99.90;;;;;;20631214;28;20238;-86
2021/01/18 05:08:06;;;;;;;0.20;0.17;;;8.30;99.90;;;;;;20643088;23;21145;-86
2021/01/18 05:18:10;;;;;;;0.90;0.83;;;8.50;99.90;;;;;;20635652;28;20274;-84
2021/01/18 05:28:13;;;;;;;0.83;0.80;;;8.30;99.90;;;;;;20595549;28;20682;-85
2021/01/18 05:38:18;;;;;;;0.87;0.67;;;8.30;99.90;;;;;;20593758;28;20696;-86
2021/01/18 05:48:28;;;;;;;0.60;0.30;;;8.10;99.90;;;;;;20628297;28;20537;-83
2021/01/18 05:58:34;;;;;;;0.43;0.43;;;8.10;99.90;;;;;;20626970;28;20715;-85
2021/01/18 06:08:46;;;;;;;0.20;0.20;;;8.40;99.90;;;;;;20588610;28;20233;-81
2021/01/18 06:19:01;;;;;;;0.60;0.33;;;8.60;99.90;;;;;;20627794;28;20239;-84
2021/01/18 06:29:03;;;;;;;0.57;0.53;;;8.50;99.90;;;;;;20632338;28;20378;-87
2021/01/18 06:39:08;;;;;;;0.57;0.57;;;8.80;99.90;;;;;;20622822;28;20227;-85
2021/01/18 06:49:15;;;;;;;1.13;0.53;;;8.50;99.90;;;;;;20599880;28;20483;-88
2021/01/18 06:59:34;;;;;;;0.60;0.40;;;8.60;99.90;;;;;;20528914;28;20243;-80
2021/01/18 07:09:38;;;;;;;0.20;0.20;;;8.70;99.90;;;;;;20464199;29;20200;-85
2021/01/18 07:19:48;;;;;;;0.60;0.27;;;8.80;99.90;;;;;;20471994;28;20253;-87
2021/01/18 07:30:12;;;;;;;1.93;1.00;;;9.10;99.90;;;;;;20464876;29;20200;-79
2021/01/18 07:40:17;;;;;;;0.87;0.87;;;9.40;99.90;;;;;;20470118;29;20245;-78
2021/01/18 07:50:27;;;;;;;0.50;0.40;;;9.80;99.90;;;;;;20469546;28;20189;-85
2021/01/18 08:00:32;;;;;;;1.67;1.00;;;9.80;99.90;;;;;;20513571;28;20719;-85
2021/01/18 08:10:56;;;;;;;1.10;1.10;;;10.00;99.90;;;;;;20602783;28;20526;-86
2021/01/18 08:21:00;;;;;;;0.77;0.77;;;10.20;99.90;;;;;;20606813;28;20231;-83
2021/01/18 08:31:04;;;;;;;18.10;2.27;;;10.10;99.90;;;;;;20641618;28;20238;-81
2021/01/18 08:41:13;;;;;;;1.23;1.17;;;10.00;99.90;;;;;;20623909;28;20573;-78
2021/01/18 08:51:45;;;;;;;1.63;1.47;;;10.10;99.90;;;;;;20588006;28;20199;-78
2021/01/18 09:01:59;;;;;;;0.63;0.63;;;10.70;99.90;;;;;;20586086;28;20631;-78
2021/01/18 09:12:04;;;;;;;3.30;0.67;;;11.10;99.90;;;;;;20606588;28;20199;-74
2021/01/18 09:22:09;;;;;;;0.57;0.53;;;11.40;99.90;;;;;;20540847;28;20235;-77
2021/01/18 09:32:14;;;;;;;0.30;0.30;;;11.70;99.90;;;;;;20542617;28;20247;-76
2021/01/18 09:42:22;;;;;;;2.50;0.93;;;12.20;99.90;;;;;;20540402;28;20318;-78
2021/01/18 09:52:25;;;;;;;0.97;0.70;;;12.00;99.90;;;;;;20587477;28;20206;-77
2021/01/18 10:02:36;;;;;;;0.60;0.60;;;11.90;99.90;;;;;;20603088;28;20270;-77
2021/01/18 10:12:48;;;;;;;0.30;0.20;;;11.70;99.90;;;;;;20618072;28;20246;-77
2021/01/18 10:23:16;;;;;;;0.30;0.30;;;11.90;99.90;;;;;;20617243;28;20199;-79
2021/01/18 10:33:19;;;;;;;0.50;0.50;;;12.20;99.90;;;;;;20616617;28;20231;-80
2021/01/18 10:43:24;;;;;;;3.83;2.13;;;12.80;99.90;;;;;;20610159;28;20199;-81
2021/01/18 10:53:29;;;;;;;1.27;0.93;;;13.00;99.90;;;;;;20598590;28;20309;-80
2021/01/18 11:03:33;;;;;;;2.83;1.40;;;13.40;99.90;;;;;;20583565;28;20236;-80
2021/01/18 11:13:36;;;;;;;0.90;0.60;;;13.60;99.90;;;;;;20536384;28;20216;-79
2021/01/18 11:23:39;;;;;;;1.90;1.37;;;13.80;99.90;;;;;;20532648;28;20204;-80
2021/01/18 11:33:43;;;;;;;0.67;0.67;;;13.60;99.90;;;;;;20576065;28;20314;-78
2021/01/18 11:43:48;;;;;;;0.20;0.20;;;14.50;99.90;;;;;;20610027;28;20195;-78
2021/01/18 11:53:53;;;;;;;0.73;0.60;;;15.20;99.90;;;;;;20546361;28;20243;-79
2021/01/18 12:03:59;;;;;;;0.20;0.10;;;14.60;99.90;;;;;;20588465;28;20238;-80
2021/01/18 12:14:01;;;;;;;7.93;0.80;;;15.70;99.90;;;;;;20630388;28;20580;-79
2021/01/18 12:24:07;;;;;;;2.40;0.47;;;14.40;99.90;;;;;;20610920;28;20200;-78
2021/01/18 12:34:10;;;;;;;0.30;0.20;;;14.50;99.90;;;;;;20624899;28;20238;-78
2021/01/18 12:44:15;;;;;;;1.40;0.87;;;13.90;99.90;;;;;;20624363;28;20199;-79
2021/01/18 12:54:17;;;;;;;0.93;0.37;;;13.80;99.90;;;;;;20628391;28;20386;-78
2021/01/18 13:04:21;;;;;;;0.20;0.10;;;15.40;99.90;;;;;;20624999;28;20262;-75
2021/01/18 13:14:24;;;;;;;0.40;0.33;;;14.60;99.90;;;;;;20624566;28;20586;-78
2021/01/18 13:24:29;;;;;;;0.60;0.60;;;14.60;99.90;;;;;;20622450;28;20727;-79
2021/01/18 13:34:32;;;;;;;0.20;0.10;;;13.90;99.90;;;;;;20619523;28;20483;-79
2021/01/18 13:44:36;;;;;;;0.93;0.60;;;13.80;99.90;;;;;;20620513;28;20279;-75
2021/01/18 13:54:39;;;;;;;1.80;1.70;;;15.60;99.90;;;;;;20622008;28;20570;-81
2021/01/18 14:04:43;;;;;;;0.80;0.80;;;14.30;99.90;;;;;;20605289;28;20231;-81
2021/01/18 14:14:46;;;;;;;7.60;0.77;;;13.80;99.90;;;;;;20602231;28;20346;-79
2021/01/18 14:24:50;;;;;;;1.67;0.70;;;13.70;99.90;;;;;;20614668;28;20274;-76
2021/01/18 14:34:53;;;;;;;1.63;0.93;;;14.00;99.90;;;;;;20580762;28;20285;-79
2021/01/18 14:44:57;;;;;;;1.60;1.40;;;14.20;99.90;;;;;;20546314;28;20215;-75
2021/01/18 14:55:01;;;;;;;0.40;0.30;;;13.60;99.90;;;;;;20599761;28;20227;-77
2021/01/18 15:05:06;;;;;;;1.63;1.27;;;13.60;99.90;;;;;;20613132;28;20216;-80
2021/01/18 15:15:11;;;;;;;0.37;0.37;;;13.50;99.90;;;;;;20593466;28;21013;-81
2021/01/18 15:25:15;;;;;;;0.20;0.13;;;13.30;99.90;;;;;;20591667;28;20254;-79
2021/01/18 15:35:21;;;;;;;3.93;1.27;;;13.60;99.90;;;;;;20620502;28;20625;-81
2021/01/18 15:45:25;;;;;;;0.80;0.80;;;13.50;99.90;;;;;;20556365;28;20196;-78
2021/01/18 15:55:31;;;;;;;1.80;1.60;;;13.00;99.90;;;;;;20605549;28;20940;-77
2021/01/18 16:05:35;;;;;;;0.20;0.10;;;13.20;99.90;;;;;;20571346;28;20638;-81
2021/01/18 16:15:38;;;;;;;0.30;0.20;;;12.80;99.90;;;;;;20534134;28;20501;-78
2021/01/18 16:25:45;;;;;;;0.20;0.10;;;12.70;99.90;;;;;;20508808;28;20204;-79
2021/01/18 16:35:48;;;;;;;0.30;0.30;;;12.50;99.90;;;;;;20529237;28;20235;-78
2021/01/18 16:45:51;;;;;;;2.00;1.30;;;12.10;99.90;;;;;;20598932;28;20653;-79
2021/01/18 16:55:54;;;;;;;1.63;1.10;;;12.00;99.90;;;;;;20549966;28;20238;-82
2021/01/18 17:05:58;;;;;;;1.87;1.40;;;11.50;99.90;;;;;;20546182;28;20216;-79
2021/01/18 17:16:02;;;;;;;1.33;1.03;;;11.40;99.90;;;;;;20526236;28;20240;-80
2021/01/18 17:26:06;;;;;;;1.40;1.30;;;11.30;99.90;;;;;;20508525;28;20200;-80
2021/01/18 17:36:08;;;;;;;1.50;1.40;;;11.30;99.90;;;;;;20566002;28;20223;-81
2021/01/18 17:46:12;;;;;;;1.80;1.43;;;11.30;99.90;;;;;;20607397;28;20559;-81
2021/01/18 17:56:18;;;;;;;2.33;1.33;;;11.10;99.90;;;;;;20622489;28;20235;-80
2021/01/18 18:06:26;;;;;;;2.20;1.03;;;10.50;99.90;;;;;;20620936;28;20227;-80
2021/01/18 18:16:30;;;;;;;1.30;0.80;;;10.10;99.90;;;;;;20605520;28;20595;-72
2021/01/18 18:26:37;;;;;;;1.20;0.87;;;10.10;99.90;;;;;;20601755;28;20218;-82
2021/01/18 18:36:47;;;;;;;6.03;0.47;;;10.00;99.90;;;;;;20569194;28;20523;-80
2021/01/18 18:46:51;;;;;;;2.73;2.17;;;9.80;99.90;;;;;;20536699;28;20259;-80
2021/01/18 18:56:56;;;;;;;12.10;1.60;;;9.70;99.90;;;;;;20614718;28;20707;-81
2021/01/18 19:07:00;;;;;;;7.60;1.70;;;9.50;99.90;;;;;;20604524;28;20231;-82
2021/01/18 19:17:05;;;;;;;1.17;0.60;;;9.30;99.90;;;;;;20616815;28;20200;-83
2021/01/18 19:27:09;;;;;;;1.33;0.97;;;8.90;99.90;;;;;;20635579;28;20195;-77
2021/01/18 19:37:12;;;;;;;0.20;0.20;;;8.90;99.90;;;;;;20600380;28;20611;-84
2021/01/18 19:47:16;;;;;;;1.63;0.50;;;8.40;99.90;;;;;;20621494;28;20195;-85
2021/01/18 19:57:23;;;;;;;1.43;1.33;;;8.30;99.90;;;;;;20601475;28;20191;-85
2021/01/18 20:07:27;;;;;;;4.70;1.90;;;8.20;99.90;;;;;;20601184;28;20238;-88
2021/01/18 20:17:30;;;;;;;1.00;0.93;;;8.60;99.90;;;;;;20631948;28;20269;-78
2021/01/18 20:27:34;;;;;;;7.27;0.60;;;8.60;99.90;;;;;;20616835;28;20234;-86
2021/01/18 20:37:41;;;;;;;4.83;2.67;;;8.90;99.90;;;;;;20593819;28;20586;-84
2021/01/18 20:47:52;;;;;;;3.83;1.83;;;8.70;99.90;;;;;;20566848;28;20597;-84
2021/01/18 20:57:54;;;;;;;10.97;1.27;;;9.00;99.90;;;;;;20640807;28;20200;-85
2021/01/18 21:07:58;;;;;;;2.43;1.90;;;8.90;99.90;;;;;;20646032;28;20757;-82
2021/01/18 21:18:02;;;;;;;1.23;0.57;;;8.90;99.90;;;;;;20607168;28;20286;-83
2021/01/18 21:28:06;;;;;;;3.87;3.47;;;9.20;99.90;;;;;;20627827;28;20254;-85
2021/01/18 21:38:09;;;;;;;1.53;1.43;;;9.30;99.90;;;;;;20569982;28;20207;-83
2021/01/18 21:48:13;;;;;;;1.90;1.37;;;9.20;99.90;;;;;;20582380;28;20223;-85
2021/01/18 21:58:16;;;;;;;1.43;1.33;;;8.90;99.90;;;;;;20650027;28;20699;-83
2021/01/18 22:08:20;;;;;;;3.57;1.53;;;8.80;99.90;;;;;;20633953;28;20242;-85
2021/01/18 22:18:22;;;;;;;0.70;0.53;;;8.50;99.90;;;;;;20612075;28;20223;-86
2021/01/18 22:28:26;;;;;;;1.23;0.97;;;8.40;99.90;;;;;;20624989;28;20234;-83
2021/01/18 22:38:28;;;;;;;6.17;2.00;;;8.10;99.90;;;;;;20562941;28;20207;-86
2021/01/18 22:48:32;;;;;;;0.60;0.60;;;8.00;99.90;;;;;;20550859;28;20220;-82
2021/01/18 22:58:34;;;;;;;0.43;0.43;;;7.80;99.90;;;;;;20606149;28;20269;-84
2021/01/18 23:08:41;;;;;;;1.63;1.10;;;7.50;99.90;;;;;;20618999;28;20338;-82
2021/01/18 23:18:43;;;;;;;2.83;2.07;;;7.40;99.90;;;;;;20624759;28;20286;-83
2021/01/18 23:28:47;;;;;;;0.70;0.57;;;7.10;99.90;;;;;;20681582;28;20239;-84
2021/01/18 23:38:49;;;;;;;5.27;1.93;;;6.80;99.90;;;;;;20577290;28;20337;-82
2021/01/18 23:48:53;;;;;;;0.30;0.30;;;8.50;99.90;;;;;;20551623;28;20362;-82
2021/01/18 23:58:55;;;;;;;0.63;0.63;;;9.20;99.90;;;;;;20615222;28;20722;-78
